sensor_id;sensor_type;location;lat;lon;timestamp;temperature;humidity
27619;DHT22;15039;50.830;4.730;2023-03-14T00:01:39;11.90;99.90
27619;DHT22;15039;50.830;4.730;2023-03-14T00:04:05;11.90;99.90
27619;DHT22;15039;50.830;4.730;2023-03-14T00:06:30;11.90;99.90
27619;DHT22;15039;50.830;4.730;2023-03-14T00:08:57;11.80;99.90
27619;DHT22;15039;50.830;4.730;2023-03-14T00:11:22;11.80;99.90
27619;DHT22;15039;50.830;4.730;2023-03-14T00:13:52;11.80;99.90
27619;DHT22;15039;50.830;4.730;2023-03-14T00:16:18;11.70;99.90
27619;DHT22;15039;50.830;4.730;2023-03-14T00:18:44;11.70;99.90
27619;DHT22;15039;50.830;4.730;2023-03-14T00:21:11;11.70;99.90
27619;DHT22;15039;50.830;4.730;2023-03-14T00:23:39;11.70;99.90
27619;DHT22;15039;50.830;4.730;2023-03-14T00:26:08;11.60;99.90
27619;DHT22;15039;50.830;4.730;2023-03-14T00:28:34;11.60;99.90
27619;DHT22;15039;50.830;4.730;2023-03-14T00:31:05;11.60;99.90
27619;DHT22;15039;50.830;4.730;2023-03-14T00:33:31;11.50;99.90
27619;DHT22;15039;50.830;4.730;2023-03-14T00:35:59;11.50;99.90
27619;DHT22;15039;50.830;4.730;2023-03-14T00:38:26;11.50;99.90
27619;DHT22;15039;50.830;4.730;2023-03-14T00:40:52;11.50;99.90
27619;DHT22;15039;50.830;4.730;2023-03-14T00:43:18;11.40;99.90
27619;DHT22;15039;50.830;4.730;2023-03-14T00:45:47;11.40;99.90
27619;DHT22;15039;50.830;4.730;2023-03-14T00:48:13;11.40;99.90
27619;DHT22;15039;50.830;4.730;2023-03-14T00:50:38;11.40;99.90
27619;DHT22;15039;50.830;4.730;2023-03-14T00:53:04;11.40;99.90
27619;DHT22;15039;50.830;4.730;2023-03-14T00:55:30;11.50;99.90
27619;DHT22;15039;50.830;4.730;2023-03-14T00:57:56;11.40;99.90
27619;DHT22;15039;50.830;4.730;2023-03-14T01:00:21;11.40;99.90
27619;DHT22;15039;50.830;4.730;2023-03-14T01:02:47;11.40;99.90
27619;DHT22;15039;50.830;4.730;2023-03-14T01:05:13;11.30;99.90
27619;DHT22;15039;50.830;4.730;2023-03-14T01:07:38;11.40;99.90
27619;DHT22;15039;50.830;4.730;2023-03-14T01:10:05;11.40;99.90
27619;DHT22;15039;50.830;4.730;2023-03-14T01:12:31;11.40;99.90
27619;DHT22;15039;50.830;4.730;2023-03-14T01:14:57;11.40;99.90
27619;DHT22;15039;50.830;4.730;2023-03-14T01:17:22;11.40;99.90
27619;DHT22;15039;50.830;4.730;2023-03-14T01:19:48;11.40;99.90
27619;DHT22;15039;50.830;4.730;2023-03-14T01:22:14;11.40;99.90
27619;DHT22;15039;50.830;4.730;2023-03-14T01:24:40;11.40;99.90
27619;DHT22;15039;50.830;4.730;2023-03-14T01:27:05;11.30;99.90
27619;DHT22;15039;50.830;4.730;2023-03-14T01:29:31;11.50;99.90
27619;DHT22;15039;50.830;4.730;2023-03-14T01:31:57;11.50;99.90
27619;DHT22;15039;50.830;4.730;2023-03-14T01:34:22;11.50;99.90
27619;DHT22;15039;50.830;4.730;2023-03-14T01:36:48;11.40;99.90
27619;DHT22;15039;50.830;4.730;2023-03-14T01:39:14;11.30;99.90
27619;DHT22;15039;50.830;4.730;2023-03-14T01:41:40;11.30;99.90
27619;DHT22;15039;50.830;4.730;2023-03-14T01:44:11;11.20;99.90
27619;DHT22;15039;50.830;4.730;2023-03-14T01:46:42;11.10;99.90
27619;DHT22;15039;50.830;4.730;2023-03-14T01:49:26;11.00;99.90
27619;DHT22;15039;50.830;4.730;2023-03-14T01:54:32;10.90;99.90
27619;DHT22;15039;50.830;4.730;2023-03-14T01:57:06;10.80;99.90
27619;DHT22;15039;50.830;4.730;2023-03-14T01:59:32;10.80;99.90
27619;DHT22;15039;50.830;4.730;2023-03-14T02:01:59;10.80;99.90
27619;DHT22;15039;50.830;4.730;2023-03-14T02:04:28;10.70;99.90
27619;DHT22;15039;50.830;4.730;2023-03-14T02:09:38;10.60;99.90
27619;DHT22;15039;50.830;4.730;2023-03-14T02:12:06;10.60;99.90
27619;DHT22;15039;50.830;4.730;2023-03-14T02:14:34;10.50;99.90
27619;DHT22;15039;50.830;4.730;2023-03-14T02:17:01;10.50;99.90
27619;DHT22;15039;50.830;4.730;2023-03-14T02:22:23;10.40;99.90
27619;DHT22;15039;50.830;4.730;2023-03-14T02:27:26;10.30;99.90
27619;DHT22;15039;50.830;4.730;2023-03-14T02:30:05;10.20;99.90
27619;DHT22;15039;50.830;4.730;2023-03-14T02:32:33;10.20;99.90
27619;DHT22;15039;50.830;4.730;2023-03-14T02:35:03;10.10;99.90
27619;DHT22;15039;50.830;4.730;2023-03-14T02:37:35;10.00;99.90
27619;DHT22;15039;50.830;4.730;2023-03-14T02:40:02;10.10;99.90
27619;DHT22;15039;50.830;4.730;2023-03-14T02:42:29;10.10;99.90
27619;DHT22;15039;50.830;4.730;2023-03-14T02:47:32;10.10;99.90
27619;DHT22;15039;50.830;4.730;2023-03-14T02:50:08;10.10;99.90
27619;DHT22;15039;50.830;4.730;2023-03-14T02:52:34;10.10;99.90
27619;DHT22;15039;50.830;4.730;2023-03-14T02:55:00;10.20;99.90
27619;DHT22;15039;50.830;4.730;2023-03-14T02:57:25;10.20;99.90
27619;DHT22;15039;50.830;4.730;2023-03-14T02:59:51;10.30;99.90
27619;DHT22;15039;50.830;4.730;2023-03-14T03:02:17;10.30;99.90
27619;DHT22;15039;50.830;4.730;2023-03-14T03:04:43;10.30;99.90
27619;DHT22;15039;50.830;4.730;2023-03-14T03:07:08;10.20;99.90
27619;DHT22;15039;50.830;4.730;2023-03-14T03:09:34;10.10;99.90
27619;DHT22;15039;50.830;4.730;2023-03-14T03:12:00;10.20;99.90
27619;DHT22;15039;50.830;4.730;2023-03-14T03:14:25;10.20;99.90
27619;DHT22;15039;50.830;4.730;2023-03-14T03:16:51;10.20;99.90
27619;DHT22;15039;50.830;4.730;2023-03-14T03:19:16;10.20;99.90
27619;DHT22;15039;50.830;4.730;2023-03-14T03:21:43;10.20;99.90
27619;DHT22;15039;50.830;4.730;2023-03-14T03:24:09;10.20;99.90
27619;DHT22;15039;50.830;4.730;2023-03-14T03:26:35;10.20;99.90
27619;DHT22;15039;50.830;4.730;2023-03-14T03:29:01;10.10;99.90
27619;DHT22;15039;50.830;4.730;2023-03-14T03:31:27;10.20;99.90
27619;DHT22;15039;50.830;4.730;2023-03-14T03:33:52;10.20;99.90
27619;DHT22;15039;50.830;4.730;2023-03-14T03:36:22;10.20;99.90
27619;DHT22;15039;50.830;4.730;2023-03-14T03:38:49;10.20;99.90
27619;DHT22;15039;50.830;4.730;2023-03-14T03:41:14;10.20;99.90
27619;DHT22;15039;50.830;4.730;2023-03-14T03:43:40;10.20;99.90
27619;DHT22;15039;50.830;4.730;2023-03-14T03:46:07;10.20;99.90
27619;DHT22;15039;50.830;4.730;2023-03-14T03:48:33;10.20;99.90
27619;DHT22;15039;50.830;4.730;2023-03-14T03:50:58;10.20;99.90
27619;DHT22;15039;50.830;4.730;2023-03-14T03:53:24;10.10;99.90
27619;DHT22;15039;50.830;4.730;2023-03-14T03:55:50;10.20;99.90
27619;DHT22;15039;50.830;4.730;2023-03-14T03:58:15;10.20;99.90
27619;DHT22;15039;50.830;4.730;2023-03-14T04:00:41;10.20;99.90
27619;DHT22;15039;50.830;4.730;2023-03-14T04:03:07;10.20;99.90
27619;DHT22;15039;50.830;4.730;2023-03-14T04:05:32;10.20;99.90
27619;DHT22;15039;50.830;4.730;2023-03-14T04:07:59;10.10;99.90
27619;DHT22;15039;50.830;4.730;2023-03-14T04:10:25;10.10;99.90
27619;DHT22;15039;50.830;4.730;2023-03-14T04:12:51;10.20;99.90
27619;DHT22;15039;50.830;4.730;2023-03-14T04:15:17;10.20;99.90
27619;DHT22;15039;50.830;4.730;2023-03-14T04:17:43;10.20;99.90
27619;DHT22;15039;50.830;4.730;2023-03-14T04:20:09;10.30;99.90
27619;DHT22;15039;50.830;4.730;2023-03-14T04:22:37;10.30;99.90
27619;DHT22;15039;50.830;4.730;2023-03-14T04:25:03;10.40;99.90
27619;DHT22;15039;50.830;4.730;2023-03-14T04:27:29;10.30;99.90
27619;DHT22;15039;50.830;4.730;2023-03-14T04:29:55;10.30;99.90
27619;DHT22;15039;50.830;4.730;2023-03-14T04:32:20;10.20;99.90
27619;DHT22;15039;50.830;4.730;2023-03-14T04:34:46;10.30;99.90
27619;DHT22;15039;50.830;4.730;2023-03-14T04:37:12;10.20;99.90
27619;DHT22;15039;50.830;4.730;2023-03-14T04:39:38;10.20;99.90
27619;DHT22;15039;50.830;4.730;2023-03-14T04:42:03;10.20;99.90
27619;DHT22;15039;50.830;4.730;2023-03-14T04:44:29;10.20;99.90
27619;DHT22;15039;50.830;4.730;2023-03-14T04:46:55;10.20;99.90
27619;DHT22;15039;50.830;4.730;2023-03-14T04:49:20;10.20;99.90
27619;DHT22;15039;50.830;4.730;2023-03-14T04:51:46;10.10;99.90
27619;DHT22;15039;50.830;4.730;2023-03-14T04:54:12;10.20;99.90
27619;DHT22;15039;50.830;4.730;2023-03-14T04:56:37;10.20;99.90
27619;DHT22;15039;50.830;4.730;2023-03-14T04:59:04;10.20;99.90
27619;DHT22;15039;50.830;4.730;2023-03-14T05:01:29;10.20;99.90
27619;DHT22;15039;50.830;4.730;2023-03-14T05:03:55;10.20;99.90
27619;DHT22;15039;50.830;4.730;2023-03-14T05:06:20;10.20;99.90
27619;DHT22;15039;50.830;4.730;2023-03-14T05:08:46;10.20;99.90
27619;DHT22;15039;50.830;4.730;2023-03-14T05:11:12;10.20;99.90
27619;DHT22;15039;50.830;4.730;2023-03-14T05:13:39;10.30;99.90
27619;DHT22;15039;50.830;4.730;2023-03-14T05:16:07;10.30;99.90
27619;DHT22;15039;50.830;4.730;2023-03-14T05:18:33;10.30;99.90
27619;DHT22;15039;50.830;4.730;2023-03-14T05:20:59;10.30;99.90
27619;DHT22;15039;50.830;4.730;2023-03-14T05:23:25;10.30;99.90
27619;DHT22;15039;50.830;4.730;2023-03-14T05:25:50;10.30;99.90
27619;DHT22;15039;50.830;4.730;2023-03-14T05:28:16;10.40;99.90
27619;DHT22;15039;50.830;4.730;2023-03-14T05:30:42;10.30;99.90
27619;DHT22;15039;50.830;4.730;2023-03-14T05:33:07;10.30;99.90
27619;DHT22;15039;50.830;4.730;2023-03-14T05:35:33;10.30;99.90
27619;DHT22;15039;50.830;4.730;2023-03-14T05:37:58;10.40;99.90
27619;DHT22;15039;50.830;4.730;2023-03-14T05:40:24;10.40;99.90
27619;DHT22;15039;50.830;4.730;2023-03-14T05:42:50;10.40;99.90
27619;DHT22;15039;50.830;4.730;2023-03-14T05:45:15;10.40;99.90
27619;DHT22;15039;50.830;4.730;2023-03-14T05:47:41;10.40;99.90
27619;DHT22;15039;50.830;4.730;2023-03-14T05:50:07;10.50;99.90
27619;DHT22;15039;50.830;4.730;2023-03-14T05:52:33;10.50;99.90
27619;DHT22;15039;50.830;4.730;2023-03-14T05:54:58;10.40;99.90
27619;DHT22;15039;50.830;4.730;2023-03-14T05:57:24;10.40;99.90
27619;DHT22;15039;50.830;4.730;2023-03-14T05:59:49;10.40;99.90
27619;DHT22;15039;50.830;4.730;2023-03-14T06:02:15;10.50;99.90
27619;DHT22;15039;50.830;4.730;2023-03-14T06:04:40;10.50;99.90
27619;DHT22;15039;50.830;4.730;2023-03-14T06:07:06;10.50;99.90
27619;DHT22;15039;50.830;4.730;2023-03-14T06:09:32;10.50;99.90
27619;DHT22;15039;50.830;4.730;2023-03-14T06:11:57;10.40;99.90
27619;DHT22;15039;50.830;4.730;2023-03-14T06:14:23;10.50;99.90
27619;DHT22;15039;50.830;4.730;2023-03-14T06:16:48;10.50;99.90
27619;DHT22;15039;50.830;4.730;2023-03-14T06:19:14;10.50;99.90
27619;DHT22;15039;50.830;4.730;2023-03-14T06:21:40;10.50;99.90
27619;DHT22;15039;50.830;4.730;2023-03-14T06:24:06;10.50;99.90
27619;DHT22;15039;50.830;4.730;2023-03-14T06:26:32;10.50;99.90
27619;DHT22;15039;50.830;4.730;2023-03-14T06:28:58;10.50;99.90
27619;DHT22;15039;50.830;4.730;2023-03-14T06:31:31;10.50;99.90
27619;DHT22;15039;50.830;4.730;2023-03-14T06:33:56;10.50;99.90
27619;DHT22;15039;50.830;4.730;2023-03-14T06:36:22;10.50;99.90
27619;DHT22;15039;50.830;4.730;2023-03-14T06:38:48;10.50;99.90
27619;DHT22;15039;50.830;4.730;2023-03-14T06:41:14;10.50;99.90
27619;DHT22;15039;50.830;4.730;2023-03-14T06:43:39;10.60;99.90
27619;DHT22;15039;50.830;4.730;2023-03-14T06:46:05;10.60;99.90
27619;DHT22;15039;50.830;4.730;2023-03-14T06:48:31;10.60;99.90
27619;DHT22;15039;50.830;4.730;2023-03-14T06:50:57;10.60;99.90
27619;DHT22;15039;50.830;4.730;2023-03-14T06:53:22;10.50;99.90
27619;DHT22;15039;50.830;4.730;2023-03-14T06:55:48;10.50;99.90
27619;DHT22;15039;50.830;4.730;2023-03-14T06:58:14;10.50;99.90
27619;DHT22;15039;50.830;4.730;2023-03-14T07:00:40;10.50;99.90
27619;DHT22;15039;50.830;4.730;2023-03-14T07:03:05;10.50;99.90
27619;DHT22;15039;50.830;4.730;2023-03-14T07:05:31;10.60;99.90
27619;DHT22;15039;50.830;4.730;2023-03-14T07:07:57;10.60;99.90
27619;DHT22;15039;50.830;4.730;2023-03-14T07:10:23;10.50;99.90
27619;DHT22;15039;50.830;4.730;2023-03-14T07:12:48;10.60;99.90
27619;DHT22;15039;50.830;4.730;2023-03-14T07:15:14;10.50;99.90
27619;DHT22;15039;50.830;4.730;2023-03-14T07:17:40;10.20;99.90
27619;DHT22;15039;50.830;4.730;2023-03-14T07:20:06;9.40;99.90
27619;DHT22;15039;50.830;4.730;2023-03-14T07:22:32;8.80;99.90
27619;DHT22;15039;50.830;4.730;2023-03-14T07:24:58;8.40;99.90
27619;DHT22;15039;50.830;4.730;2023-03-14T07:27:23;8.10;99.90
27619;DHT22;15039;50.830;4.730;2023-03-14T07:29:49;7.90;99.90
27619;DHT22;15039;50.830;4.730;2023-03-14T07:32:15;7.80;99.90
27619;DHT22;15039;50.830;4.730;2023-03-14T07:34:41;7.70;99.90
27619;DHT22;15039;50.830;4.730;2023-03-14T07:37:07;7.60;99.90
27619;DHT22;15039;50.830;4.730;2023-03-14T07:39:33;7.50;99.90
27619;DHT22;15039;50.830;4.730;2023-03-14T07:41:59;7.30;99.90
27619;DHT22;15039;50.830;4.730;2023-03-14T07:44:26;7.20;99.90
27619;DHT22;15039;50.830;4.730;2023-03-14T07:46:51;7.20;99.90
27619;DHT22;15039;50.830;4.730;2023-03-14T07:49:17;7.20;99.90
27619;DHT22;15039;50.830;4.730;2023-03-14T07:51:43;7.30;99.90
27619;DHT22;15039;50.830;4.730;2023-03-14T07:54:10;7.20;99.90
27619;DHT22;15039;50.830;4.730;2023-03-14T07:56:35;7.30;99.90
27619;DHT22;15039;50.830;4.730;2023-03-14T07:59:01;7.30;99.90
27619;DHT22;15039;50.830;4.730;2023-03-14T08:01:27;7.30;99.90
27619;DHT22;15039;50.830;4.730;2023-03-14T08:03:52;7.30;99.90
27619;DHT22;15039;50.830;4.730;2023-03-14T08:06:18;7.40;99.90
27619;DHT22;15039;50.830;4.730;2023-03-14T08:08:44;7.40;99.90
27619;DHT22;15039;50.830;4.730;2023-03-14T08:11:09;7.50;99.90
27619;DHT22;15039;50.830;4.730;2023-03-14T08:13:36;7.60;99.90
27619;DHT22;15039;50.830;4.730;2023-03-14T08:16:02;7.60;99.90
27619;DHT22;15039;50.830;4.730;2023-03-14T08:18:28;7.60;99.90
27619;DHT22;15039;50.830;4.730;2023-03-14T08:20:53;7.60;99.90
27619;DHT22;15039;50.830;4.730;2023-03-14T08:23:19;7.60;99.90
27619;DHT22;15039;50.830;4.730;2023-03-14T08:25:45;7.70;99.90
27619;DHT22;15039;50.830;4.730;2023-03-14T08:28:10;7.70;99.90
27619;DHT22;15039;50.830;4.730;2023-03-14T08:30:36;7.60;99.90
27619;DHT22;15039;50.830;4.730;2023-03-14T08:33:02;7.60;99.90
27619;DHT22;15039;50.830;4.730;2023-03-14T08:35:28;7.50;99.90
27619;DHT22;15039;50.830;4.730;2023-03-14T08:37:53;7.50;99.90
27619;DHT22;15039;50.830;4.730;2023-03-14T08:40:19;7.50;99.90
27619;DHT22;15039;50.830;4.730;2023-03-14T08:42:45;7.50;99.90
27619;DHT22;15039;50.830;4.730;2023-03-14T08:45:13;7.50;99.90
27619;DHT22;15039;50.830;4.730;2023-03-14T08:47:39;7.40;99.90
27619;DHT22;15039;50.830;4.730;2023-03-14T08:50:06;7.40;99.90
27619;DHT22;15039;50.830;4.730;2023-03-14T08:52:32;7.40;99.90
27619;DHT22;15039;50.830;4.730;2023-03-14T08:54:59;7.40;99.90
27619;DHT22;15039;50.830;4.730;2023-03-14T08:57:25;7.40;99.90
27619;DHT22;15039;50.830;4.730;2023-03-14T08:59:56;7.50;99.90
27619;DHT22;15039;50.830;4.730;2023-03-14T09:02:23;7.40;99.90
27619;DHT22;15039;50.830;4.730;2023-03-14T09:04:50;7.40;99.90
27619;DHT22;15039;50.830;4.730;2023-03-14T09:07:16;7.40;99.90
27619;DHT22;15039;50.830;4.730;2023-03-14T09:09:42;7.30;99.90
27619;DHT22;15039;50.830;4.730;2023-03-14T09:12:08;7.20;99.90
27619;DHT22;15039;50.830;4.730;2023-03-14T09:14:33;7.20;99.90
27619;DHT22;15039;50.830;4.730;2023-03-14T09:16:59;7.20;99.90
27619;DHT22;15039;50.830;4.730;2023-03-14T09:19:25;7.10;99.90
27619;DHT22;15039;50.830;4.730;2023-03-14T09:21:50;7.10;99.90
27619;DHT22;15039;50.830;4.730;2023-03-14T09:24:17;7.10;99.90
27619;DHT22;15039;50.830;4.730;2023-03-14T09:26:42;7.10;99.90
27619;DHT22;15039;50.830;4.730;2023-03-14T09:29:08;7.20;99.90
27619;DHT22;15039;50.830;4.730;2023-03-14T09:31:34;7.20;99.90
27619;DHT22;15039;50.830;4.730;2023-03-14T09:34:00;7.30;99.90
27619;DHT22;15039;50.830;4.730;2023-03-14T09:36:26;7.30;99.90
27619;DHT22;15039;50.830;4.730;2023-03-14T09:38:52;7.40;99.90
27619;DHT22;15039;50.830;4.730;2023-03-14T09:41:33;7.30;99.90
27619;DHT22;15039;50.830;4.730;2023-03-14T09:44:14;7.10;99.90
27619;DHT22;15039;50.830;4.730;2023-03-14T09:46:43;7.00;99.90
27619;DHT22;15039;50.830;4.730;2023-03-14T09:49:21;7.00;99.90
27619;DHT22;15039;50.830;4.730;2023-03-14T09:51:50;7.10;99.90
27619;DHT22;15039;50.830;4.730;2023-03-14T09:54:56;7.10;99.90
27619;DHT22;15039;50.830;4.730;2023-03-14T09:57:26;7.10;99.90
27619;DHT22;15039;50.830;4.730;2023-03-14T09:59:58;7.00;99.90
27619;DHT22;15039;50.830;4.730;2023-03-14T10:02:34;6.90;99.90
27619;DHT22;15039;50.830;4.730;2023-03-14T10:05:00;6.90;99.90
27619;DHT22;15039;50.830;4.730;2023-03-14T10:07:30;6.90;99.90
27619;DHT22;15039;50.830;4.730;2023-03-14T10:09:58;6.90;99.90
27619;DHT22;15039;50.830;4.730;2023-03-14T10:12:35;7.00;99.90
27619;DHT22;15039;50.830;4.730;2023-03-14T10:15:10;7.00;99.90
27619;DHT22;15039;50.830;4.730;2023-03-14T10:17:47;7.00;99.90
27619;DHT22;15039;50.830;4.730;2023-03-14T10:22:58;7.30;99.90
27619;DHT22;15039;50.830;4.730;2023-03-14T10:25:30;7.40;99.90
27619;DHT22;15039;50.830;4.730;2023-03-14T10:27:56;7.60;99.90
27619;DHT22;15039;50.830;4.730;2023-03-14T10:30:40;7.70;99.90
27619;DHT22;15039;50.830;4.730;2023-03-14T10:33:22;7.70;99.90
27619;DHT22;15039;50.830;4.730;2023-03-14T10:35:59;7.60;99.90
27619;DHT22;15039;50.830;4.730;2023-03-14T10:38:28;7.50;99.90
27619;DHT22;15039;50.830;4.730;2023-03-14T10:40:55;7.40;99.90
27619;DHT22;15039;50.830;4.730;2023-03-14T10:43:33;7.20;99.90
27619;DHT22;15039;50.830;4.730;2023-03-14T10:46:02;7.20;99.90
27619;DHT22;15039;50.830;4.730;2023-03-14T10:48:36;7.00;99.90
27619;DHT22;15039;50.830;4.730;2023-03-14T10:53:45;6.80;99.90
27619;DHT22;15039;50.830;4.730;2023-03-14T10:56:22;6.80;99.90
27619;DHT22;15039;50.830;4.730;2023-03-14T10:58:52;6.80;99.90
27619;DHT22;15039;50.830;4.730;2023-03-14T11:07:03;6.40;99.90
27619;DHT22;15039;50.830;4.730;2023-03-14T11:16:09;6.80;99.90
27619;DHT22;15039;50.830;4.730;2023-03-14T11:21:24;6.80;99.90
27619;DHT22;15039;50.830;4.730;2023-03-14T11:27:03;6.60;99.90
27619;DHT22;15039;50.830;4.730;2023-03-14T11:29:39;6.50;99.90
27619;DHT22;15039;50.830;4.730;2023-03-14T11:32:35;6.50;99.90
27619;DHT22;15039;50.830;4.730;2023-03-14T11:35:07;6.30;99.90
27619;DHT22;15039;50.830;4.730;2023-03-14T11:37:42;6.20;99.90
27619;DHT22;15039;50.830;4.730;2023-03-14T11:40:23;6.20;99.90
27619;DHT22;15039;50.830;4.730;2023-03-14T11:45:54;6.00;99.90
27619;DHT22;15039;50.830;4.730;2023-03-14T11:51:23;6.00;99.90
27619;DHT22;15039;50.830;4.730;2023-03-14T11:57:05;6.30;99.90
27619;DHT22;15039;50.830;4.730;2023-03-14T12:05:25;6.70;99.90
27619;DHT22;15039;50.830;4.730;2023-03-14T12:13:38;6.60;99.90
27619;DHT22;15039;50.830;4.730;2023-03-14T12:18:50;6.70;99.90
27619;DHT22;15039;50.830;4.730;2023-03-14T12:21:17;6.70;99.90
27619;DHT22;15039;50.830;4.730;2023-03-14T12:28:39;6.90;99.90
27619;DHT22;15039;50.830;4.730;2023-03-14T12:44:49;7.10;99.90
27619;DHT22;15039;50.830;4.730;2023-03-14T12:50:31;6.70;99.90
27619;DHT22;15039;50.830;4.730;2023-03-14T12:55:44;6.50;99.90
27619;DHT22;15039;50.830;4.730;2023-03-14T12:58:35;6.50;99.90
27619;DHT22;15039;50.830;4.730;2023-03-14T13:01:05;6.50;99.90
27619;DHT22;15039;50.830;4.730;2023-03-14T13:03:56;6.40;99.90
27619;DHT22;15039;50.830;4.730;2023-03-14T13:06:52;6.50;99.90
27619;DHT22;15039;50.830;4.730;2023-03-14T13:12:11;6.40;99.90
27619;DHT22;15039;50.830;4.730;2023-03-14T13:14:43;6.40;99.90
27619;DHT22;15039;50.830;4.730;2023-03-14T13:17:11;6.50;99.90
27619;DHT22;15039;50.830;4.730;2023-03-14T13:19:38;6.50;99.90
27619;DHT22;15039;50.830;4.730;2023-03-14T13:22:11;6.60;99.90
27619;DHT22;15039;50.830;4.730;2023-03-14T13:24:38;6.80;99.90
27619;DHT22;15039;50.830;4.730;2023-03-14T13:27:04;6.90;99.90
27619;DHT22;15039;50.830;4.730;2023-03-14T13:29:33;7.00;99.90
27619;DHT22;15039;50.830;4.730;2023-03-14T13:32:12;7.00;99.90
27619;DHT22;15039;50.830;4.730;2023-03-14T13:34:38;7.10;99.90
27619;DHT22;15039;50.830;4.730;2023-03-14T13:37:03;7.10;99.90
27619;DHT22;15039;50.830;4.730;2023-03-14T13:39:29;7.00;99.90
27619;DHT22;15039;50.830;4.730;2023-03-14T13:42:00;7.00;99.90
27619;DHT22;15039;50.830;4.730;2023-03-14T13:44:31;7.00;99.90
27619;DHT22;15039;50.830;4.730;2023-03-14T13:47:02;6.90;99.90
27619;DHT22;15039;50.830;4.730;2023-03-14T13:49:30;6.80;99.90
27619;DHT22;15039;50.830;4.730;2023-03-14T13:51:58;6.70;99.90
27619;DHT22;15039;50.830;4.730;2023-03-14T13:54:26;6.10;99.90
27619;DHT22;15039;50.830;4.730;2023-03-14T13:57:04;5.50;99.90
27619;DHT22;15039;50.830;4.730;2023-03-14T13:59:32;5.10;99.90
27619;DHT22;15039;50.830;4.730;2023-03-14T14:02:04;5.10;99.90
27619;DHT22;15039;50.830;4.730;2023-03-14T14:04:33;5.40;99.90
27619;DHT22;15039;50.830;4.730;2023-03-14T14:07:06;5.50;99.90
27619;DHT22;15039;50.830;4.730;2023-03-14T14:09:39;5.80;99.90
27619;DHT22;15039;50.830;4.730;2023-03-14T14:14:55;6.00;99.90
27619;DHT22;15039;50.830;4.730;2023-03-14T14:17:28;6.20;99.90
27619;DHT22;15039;50.830;4.730;2023-03-14T14:19:56;6.50;99.90
27619;DHT22;15039;50.830;4.730;2023-03-14T14:22:23;6.80;99.90
27619;DHT22;15039;50.830;4.730;2023-03-14T14:24:49;6.90;99.90
27619;DHT22;15039;50.830;4.730;2023-03-14T14:27:35;7.10;99.90
27619;DHT22;15039;50.830;4.730;2023-03-14T14:30:25;7.20;99.90
27619;DHT22;15039;50.830;4.730;2023-03-14T14:32:51;7.40;99.90
27619;DHT22;15039;50.830;4.730;2023-03-14T14:35:25;7.60;99.90
27619;DHT22;15039;50.830;4.730;2023-03-14T14:37:52;7.50;99.90
27619;DHT22;15039;50.830;4.730;2023-03-14T14:40:30;7.50;99.90
27619;DHT22;15039;50.830;4.730;2023-03-14T14:43:04;7.60;99.90
27619;DHT22;15039;50.830;4.730;2023-03-14T14:45:30;7.70;99.90
27619;DHT22;15039;50.830;4.730;2023-03-14T14:48:06;7.90;99.90
27619;DHT22;15039;50.830;4.730;2023-03-14T14:51:00;7.80;99.90
27619;DHT22;15039;50.830;4.730;2023-03-14T14:53:42;7.80;99.90
27619;DHT22;15039;50.830;4.730;2023-03-14T14:56:15;7.90;99.90
27619;DHT22;15039;50.830;4.730;2023-03-14T14:58:45;7.90;99.90
27619;DHT22;15039;50.830;4.730;2023-03-14T15:01:12;7.90;99.90
27619;DHT22;15039;50.830;4.730;2023-03-14T15:03:42;8.00;99.90
27619;DHT22;15039;50.830;4.730;2023-03-14T15:06:10;7.90;99.90
27619;DHT22;15039;50.830;4.730;2023-03-14T15:08:37;7.70;99.90
27619;DHT22;15039;50.830;4.730;2023-03-14T15:11:03;7.50;99.90
27619;DHT22;15039;50.830;4.730;2023-03-14T15:13:29;7.30;99.90
27619;DHT22;15039;50.830;4.730;2023-03-14T15:15:54;6.70;99.90
27619;DHT22;15039;50.830;4.730;2023-03-14T15:18:22;6.20;99.90
27619;DHT22;15039;50.830;4.730;2023-03-14T15:20:49;5.70;99.90
27619;DHT22;15039;50.830;4.730;2023-03-14T15:23:18;5.40;99.90
27619;DHT22;15039;50.830;4.730;2023-03-14T15:25:45;5.20;99.90
27619;DHT22;15039;50.830;4.730;2023-03-14T15:30:46;5.20;99.90
27619;DHT22;15039;50.830;4.730;2023-03-14T15:33:13;5.20;99.90
27619;DHT22;15039;50.830;4.730;2023-03-14T15:35:38;5.40;99.90
27619;DHT22;15039;50.830;4.730;2023-03-14T15:38:04;5.60;99.90
27619;DHT22;15039;50.830;4.730;2023-03-14T15:40:31;5.80;99.90
27619;DHT22;15039;50.830;4.730;2023-03-14T15:42:57;6.00;99.90
27619;DHT22;15039;50.830;4.730;2023-03-14T15:45:22;6.10;99.90
27619;DHT22;15039;50.830;4.730;2023-03-14T15:47:48;6.30;99.90
27619;DHT22;15039;50.830;4.730;2023-03-14T15:50:13;6.50;99.90
27619;DHT22;15039;50.830;4.730;2023-03-14T15:52:39;6.60;99.90
27619;DHT22;15039;50.830;4.730;2023-03-14T15:55:05;6.70;99.90
27619;DHT22;15039;50.830;4.730;2023-03-14T15:57:30;6.80;99.90
27619;DHT22;15039;50.830;4.730;2023-03-14T15:59:56;6.90;99.90
27619;DHT22;15039;50.830;4.730;2023-03-14T16:02:22;7.00;99.90
27619;DHT22;15039;50.830;4.730;2023-03-14T16:04:47;7.00;99.90
27619;DHT22;15039;50.830;4.730;2023-03-14T16:07:13;7.10;99.90
27619;DHT22;15039;50.830;4.730;2023-03-14T16:09:38;7.10;99.90
27619;DHT22;15039;50.830;4.730;2023-03-14T16:12:04;7.00;99.90
27619;DHT22;15039;50.830;4.730;2023-03-14T16:14:32;7.00;99.90
27619;DHT22;15039;50.830;4.730;2023-03-14T16:16:57;6.90;99.90
27619;DHT22;15039;50.830;4.730;2023-03-14T16:19:25;6.80;99.90
27619;DHT22;15039;50.830;4.730;2023-03-14T16:21:56;6.90;99.90
27619;DHT22;15039;50.830;4.730;2023-03-14T16:24:21;6.90;99.90
27619;DHT22;15039;50.830;4.730;2023-03-14T16:26:47;6.80;99.90
27619;DHT22;15039;50.830;4.730;2023-03-14T16:29:13;6.80;99.90
27619;DHT22;15039;50.830;4.730;2023-03-14T16:31:38;6.70;99.90
27619;DHT22;15039;50.830;4.730;2023-03-14T16:34:08;6.50;99.90
27619;DHT22;15039;50.830;4.730;2023-03-14T16:36:34;6.50;99.90
27619;DHT22;15039;50.830;4.730;2023-03-14T16:38:59;6.50;99.90
27619;DHT22;15039;50.830;4.730;2023-03-14T16:41:25;6.40;99.90
27619;DHT22;15039;50.830;4.730;2023-03-14T16:43:58;6.30;99.90
27619;DHT22;15039;50.830;4.730;2023-03-14T16:46:24;6.20;99.90
27619;DHT22;15039;50.830;4.730;2023-03-14T16:48:51;6.20;99.90
27619;DHT22;15039;50.830;4.730;2023-03-14T16:51:17;6.20;99.90
27619;DHT22;15039;50.830;4.730;2023-03-14T16:53:44;6.10;99.90
27619;DHT22;15039;50.830;4.730;2023-03-14T16:56:10;6.30;99.90
27619;DHT22;15039;50.830;4.730;2023-03-14T16:58:36;6.30;99.90
27619;DHT22;15039;50.830;4.730;2023-03-14T17:01:10;6.20;99.90
27619;DHT22;15039;50.830;4.730;2023-03-14T17:03:37;6.20;99.90
27619;DHT22;15039;50.830;4.730;2023-03-14T17:06:03;6.30;99.90
27619;DHT22;15039;50.830;4.730;2023-03-14T17:08:29;6.30;99.90
27619;DHT22;15039;50.830;4.730;2023-03-14T17:10:55;6.30;99.90
27619;DHT22;15039;50.830;4.730;2023-03-14T17:13:21;6.20;99.90
27619;DHT22;15039;50.830;4.730;2023-03-14T17:15:53;6.20;99.90
27619;DHT22;15039;50.830;4.730;2023-03-14T17:18:20;6.20;99.90